EBOS Airport Information

Runway Information
Runway 08 Length 10499 ft width 148 ft
Elevation 15 ft Threshold 985 ft Heading 77
Runway 26 Length 10499 ft Width 148 ft
Elevation 13 ft Threshold 1362 ft Heading 257
Runway 14 Length 2057 ft width 148 ft
Elevation 13 ft Threshold 0 ft Heading 137
Runway 32 Length 2057 ft Width 148 ft
Elevation 13 ft Threshold 0 ft Heading 317
Airport Frequencies
Type APP Name APP Frequency 120.6 MHZ
Type ATIS Name ATIS Frequency 126.12 MHZ
Type GND Name GND Frequency 121.975 MHZ
Type TWR Name TWR Frequency 118.175 MHZ
Airport Navaids
Type NDB Name Oostende Frequency 400 KHZ
Airport Weather Information & NOTAM
ADDS - METARS form results

(0809 UTC 22 May 2018)
 
METAR text: EBOS 220750Z 34006KT 320V020 9999 FEW035 16/12 Q1013 NOSIG
Conditions at: EBOS (OOSTENDE AIRPORT, BE) observed 0750 UTC 22 May 2018
Temperature: 16.0°C (61°F)
Dewpoint: 12.0°C (54°F) [RH = 77%]
Pressure (altimeter): 29.91 inches Hg (1013.0 mb)
Winds: from the NNW (340 degrees) at 7 MPH (6 knots; 3.1 m/s)
Visibility: 6 or more miles (10+ km)
Ceiling: at least 12,000 feet AGL
Clouds: few clouds at 3500 feet AGL
Weather: no significant weather observed at this time

METAR text: EBOS 220720Z 34004KT 270V040 9999 FEW035 16/12 Q1013 NOSIG
Conditions at: EBOS (OOSTENDE AIRPORT, BE) observed 0720 UTC 22 May 2018
Temperature: 16.0°C (61°F)
Dewpoint: 12.0°C (54°F) [RH = 77%]
Pressure (altimeter): 29.91 inches Hg (1013.0 mb)
Winds: from the NNW (340 degrees) at 5 MPH (4 knots; 2.1 m/s)
Visibility: 6 or more miles (10+ km)
Ceiling: at least 12,000 feet AGL
Clouds: few clouds at 3500 feet AGL
Weather: no significant weather observed at this time